Terminal Aerodrome Forecast
Issued by NWS Grand Forks, ND

Home | Current Version | Previous Version | Text Only | Print | Product List | Glossary On
Versions: 1 2 3 4 5 6 7 8 9 10 11 12 13 14 15 16 17
000
FTUS43 KFGF 251900 AAA
TAFFAR
TAF AMD
KFAR 251902Z 2519/2618 30008KT P6SM BKN020 BKN040
     FM252000 30010KT P6SM SCT025 BKN040
     FM252100 30012G20KT P6SM SCT250
     FM260100 28006KT P6SM SKC
     FM261400 26010KT P6SM SCT250=

USA.gov is the U.S. government's official web portal to all federal, state and local government web resources and services.